Laurence M. Gould — WCX7445 — position and weather

sailwx.info

Track history (hours):
 
Tides and Currents Weather Stations Pressure Air Temp Water Temp Dewpoint Dewpoint Depression Visibility Wind Speed Wind Dir Waves Ship Positions

Oceanographic research ship Laurence M. Gould (USA)

Detailed information on ship capabilities available from University of Delaware's Ocean Information Center.

Owner: Offshore Service Vessels LLC, Cut Off, LA. More information available from US FCC via Universal Licensing System and Coast Guard Vessel Documentation Center.

Last reported at 2019-Jan-16 02:00 UTC. Time now 2019-Jan-16 02:43 UTC.
Position S 66°30' W 072°42'.

Type: Ship. MMSI: 368138000.

Wind from 230 at 19 knots

Barometer 993.7 mb
Air temperature -0.4 ° C
Dewpoint -7.0 ° C
Water temperature 1.3 ° C

Date/timePositionNaut miles runAvg speedWind from/ knotsBaromVisibWave heightAir tempDewpointWater temp
2019-Jan-16 02:00S 66°30' W 072°42'0 0.0 230 / 19993.7 -0.4-7.0 1.3
2019-Jan-16 01:00S 66°30' W 072°42'0 0.0 240 / 17993.4 -0.5-6.7 1.2
2019-Jan-16 00:00S 66°30' W 072°42'2 2.4 230 / 17993.0 -0.0-6.7 1.3
2019-Jan-15 23:00S 66°30' W 072°36'2 0.3 220 / 20992.7 -0.0-6.5 1.3
2019-Jan-15 16:00S 66°30' W 072°42'0 0.0 190 / 12989.6 2.9-5.6 1.3
2019-Jan-15 15:00S 66°30' W 072°42'0 0.0 200 / 12989.2 3.8-5.8 1.3
2019-Jan-15 14:00S 66°30' W 072°42'0 0.0 200 / 13988.7 3.1-6.5 1.3
2019-Jan-15 13:00S 66°30' W 072°42'0 0.0 200 / 13988.2 0.8-5.4 1.3
2019-Jan-15 12:00S 66°30' W 072°42'0 0.0 190 / 14987.6 0.6-5.2 1.3
2019-Jan-15 11:00S 66°30' W 072°42'0 0.0 200 / 15987.4 0.4-5.3 1.3
2019-Jan-15 10:00S 66°30' W 072°42'0 0.0 200 / 17987.0 -0.0-5.0 1.3
2019-Jan-15 09:00S 66°30' W 072°42'8 7.7 200 / 17986.5 -0.9-4.1 1.3
2019-Jan-15 08:00S 66°36' W 072°30'9 9.3 200 / 15986.2 -1.1-3.3 0.5
2019-Jan-15 07:00S 66°42' W 072°12'1413.9 170 / 8985.8 -0.6-3.5 0.5
2019-Jan-15 06:00S 66°54' W 071°54'9 9.3 120 / 5985.8 -0.3-3.8 0.7
2019-Jan-15 05:00S 67°00' W 071°36'6 6.4 170 / 5985.7 -0.4-3.7 1.0
2019-Jan-15 04:00S 67°06' W 071°30'2 2.3 170 / 6985.7 -0.6-4.3 0.9
2019-Jan-15 03:00S 67°06' W 071°24'2 2.3 160 / 4985.7 -0.5-4.7 0.9
2019-Jan-15 02:00S 67°06' W 071°30'0 0.0 190 / 4985.7 -0.4-4.9 0.9
2019-Jan-15 01:00S 67°06' W 071°30'0 0.0 200 / 4985.6 0.4-5.0 0.9
2019-Jan-15 00:00S 67°06' W 071°30'9 9.2 230 / 5985.6 0.8-4.9 1.1
2019-Jan-14 23:00S 67°12' W 071°12'9 9.2 070 / 3985.6 0.9-3.5 0.3
2019-Jan-14 22:00S 67°18' W 070°54'8 7.6 040 / 3985.7 0.9-3.0-0.3
2019-Jan-14 21:00S 67°24' W 070°42'8 7.6 350 / 3985.8 1.8-3.0-0.9
2019-Jan-14 20:00S 67°30' W 070°30'0 0.0 340 / 3985.8 3.8-3.0-0.8
2019-Jan-14 19:00S 67°30' W 070°30'0 0.0 350 / 4985.9 3.3-3.0-0.9
2019-Jan-14 18:00S 67°30' W 070°30'0 0.0 350 / 4985.8 2.5-2.5-0.8
2019-Jan-14 17:00S 67°30' W 070°30'0 0.0 010 / 6985.9 0.3-2.7-0.9
2019-Jan-14 16:00S 67°30' W 070°30'0 0.0 340 / 7986.1 -0.2-3.4-0.9
2019-Jan-14 15:00S 67°30' W 070°30'1111.5 340 / 5986.3 0.4-3.6-0.0
2019-Jan-14 14:00S 67°30' W 070°00'1111.0 320 / 4986.5 0.5-3.0-0.0
2019-Jan-14 13:00S 67°36' W 069°36'9 9.1 290 / 3986.7 -0.0-2.4 0.1
2019-Jan-14 12:00S 67°42' W 069°18'9 9.1 300 / 7986.7 -0.0-2.2-0.4
2019-Jan-14 11:00S 67°48' W 069°00'8 7.5 320 / 8986.9 -1.3-2.5-0.5
2019-Jan-14 10:00S 67°42' W 068°48'0 0.0 310 / 7987.0 -0.7-2.1-1.2
2019-Jan-14 09:00S 67°42' W 068°48'0 0.0 320 / 7987.1 -0.7-2.1-1.2
2019-Jan-14 08:00S 67°42' W 068°48'0 0.0 320 / 7987.3 -0.8-2.5-1.2
2019-Jan-14 07:00S 67°42' W 068°48'0 0.0 310 / 7987.4 -1.1-3.4-1.2
2019-Jan-14 06:00S 67°42' W 068°48'0 0.0 310 / 7987.3 -0.8-3.0-1.3
2019-Jan-14 05:00S 67°42' W 068°48'0 0.0 320 / 10987.2 -0.7-3.1-1.3
2019-Jan-14 04:00S 67°42' W 068°48'0 0.0 340 / 11987.4 -0.6-3.2-1.3
2019-Jan-14 03:00S 67°42' W 068°48'0 0.0 330 / 9987.6 -0.9-3.4-1.1
2019-Jan-14 02:00S 67°42' W 068°48'0 0.0 330 / 7987.6 -0.5-3.4-0.9
2019-Jan-14 01:00S 67°42' W 068°48'0 0.0 330 / 5987.6 -0.1-3.4-0.8
2019-Jan-14 00:00S 67°42' W 068°48'0 0.0 300 / 4987.7 0.1-3.6-0.9
2019-Jan-13 23:00S 67°42' W 068°48'0 0.0 300 / 5987.8 1.3-3.8-0.9
2019-Jan-13 22:00S 67°42' W 068°48'0 0.0 270 / 5987.7 2.4-3.7-1.0
2019-Jan-13 21:00S 67°42' W 068°48'6 6.0 230 / 9987.5 2.0-3.2-0.8
2019-Jan-13 20:00S 67°48' W 068°48'5 4.5 210 / 8987.2 3.6-3.6-0.2
2019-Jan-13 19:00S 67°48' W 069°00'9 9.1 210 / 11987.0 1.2-3.3-0.3
2019-Jan-13 18:00S 67°42' W 069°18'9 9.1 210 / 14986.8 1.3-4.0 0.2
2019-Jan-13 17:00S 67°36' W 069°36'9 9.1 210 / 15986.7 1.5-3.8-0.0
2019-Jan-13 16:00S 67°30' W 069°54'1212.0 210 / 17986.3 3.5-3.2-0.1
2019-Jan-13 15:00S 67°18' W 069°54'8 7.6 210 / 20985.8 2.9-3.4-0.1
2019-Jan-13 14:00S 67°12' W 069°42'9 9.3 200 / 17985.2 2.2-3.7-0.7
2019-Jan-13 13:00S 67°12' W 069°18'1312.9 210 / 19984.7 6.1-3.1 0.4
2019-Jan-13 12:00S 67°00' W 069°06'1312.9 220 / 18984.4 5.5-3.0 0.7
2019-Jan-13 11:00S 66°48' W 068°54'2 2.4 210 / 14984.2 1.2-2.8-0.3
2019-Jan-13 10:00S 66°48' W 068°48'2 2.4 210 / 13984.0 -0.0-3.0-0.1
2019-Jan-13 09:00S 66°48' W 068°54'0 0.0 220 / 11983.8 -0.3-3.0-0.0
2019-Jan-13 08:00S 66°48' W 068°54'0 0.0 220 / 9983.5 -0.1-2.8-0.2
2019-Jan-13 07:00S 66°48' W 068°54'0 0.0 210 / 7983.4 -0.3-2.5-0.2
2019-Jan-13 06:00S 66°48' W 068°54'0 0.0 220 / 5983.3 -0.7-2.5-0.2
2019-Jan-13 05:00S 66°48' W 068°54'0 0.0 230 / 2983.3 -0.9-2.4-0.2
2019-Jan-13 04:00S 66°48' W 068°54'9 9.3 130 / 3983.2 -0.1-1.2-0.0
2019-Jan-13 03:00S 66°42' W 069°12'1111.2 060 / 6983.1 -0.1-1.3 0.7
2019-Jan-13 02:00S 66°36' W 069°36'8 7.7 050 / 11982.8 0.1-1.0 0.9
2019-Jan-13 01:00S 66°30' W 069°48'6 6.0 050 / 13983.0 0.4-1.0 0.8
2019-Jan-13 00:00S 66°24' W 069°48'0 0.0 050 / 14983.1 0.8-1.1 0.9
2019-Jan-12 23:00S 66°24' W 069°48'0 0.0 040 / 13983.5 0.9-1.0 0.9
2019-Jan-12 22:00S 66°24' W 069°48'6 6.0 030 / 14983.8 1.3-0.3 0.9
2019-Jan-12 21:00S 66°30' W 069°48'0 0.0 030 / 13984.2 1.7-1.2 0.9
2019-Jan-12 20:00S 66°30' W 069°48'0 0.0 020 / 13984.7 1.0-1.2 0.9
2019-Jan-12 19:00S 66°30' W 069°48'0 0.0 020 / 13985.2 1.4-1.2 1.0
2019-Jan-12 18:00S 66°30' W 069°48'0 0.0 020 / 12985.7 0.1-1.9 1.0
2019-Jan-12 17:00S 66°30' W 069°48'0 0.0 010 / 11986.2 0.9-3.2 1.1
2019-Jan-12 16:00S 66°30' W 069°48'0 0.0 010 / 7986.7 1.9-3.8 1.1
2019-Jan-12 15:00S 66°30' W 069°48'1414.0 010 / 4987.1 2.1-3.8 1.0
2019-Jan-12 14:00S 66°18' W 070°06'9 9.4 360 / 3987.6 2.6-3.8 0.9
2019-Jan-12 13:00S 66°12' W 070°24'9 9.4 340 / 4988.2 2.3-3.7 0.9
2019-Jan-12 12:00S 66°06' W 070°42'1414.1 010 / 2988.5 2.3-3.5 1.1
2019-Jan-12 11:00S 65°54' W 071°00'9 9.5 190 / 2989.0 1.7-3.4 1.3
2019-Jan-12 10:00S 65°48' W 071°18'2 2.5 230 / 4989.9 0.5-3.2 1.3
2019-Jan-12 09:00S 65°48' W 071°24'2 2.5 270 / 5990.5 0.9-3.1 1.3
2019-Jan-12 08:00S 65°48' W 071°18'0 0.0 280 / 4990.7 -0.3-3.1 1.3
2019-Jan-12 07:00S 65°48' W 071°18'0 0.0 250 / 4990.9 -0.2-2.8 1.3
2019-Jan-12 06:00S 65°48' W 071°18'0 0.0 230 / 5991.1 -0.3-3.0 1.3
2019-Jan-12 05:00S 65°48' W 071°18'2 2.5 220 / 7991.2 0.1-2.8 1.3
2019-Jan-12 04:00S 65°48' W 071°12'1414.1 220 / 7991.4 1.1-2.7 1.3
2019-Jan-12 03:00S 65°36' W 070°54'10 9.6 200 / 5991.6 1.2-2.2 1.4
2019-Jan-12 02:00S 65°30' W 070°36'10 9.6 180 / 6991.6 1.7-1.0 1.3
2019-Jan-12 01:00S 65°24' W 070°18'1211.7 150 / 3991.5 2.9-1.5 1.2
2019-Jan-12 00:00S 65°18' W 069°54'7 6.5 070 / 4991.3 3.3-2.3 1.2
2019-Jan-11 23:00S 65°12' W 069°48'3 2.5 100 / 8991.2 2.8-2.5 1.2
2019-Jan-11 22:00S 65°12' W 069°42'0 0.0 110 / 10991.0 2.9-2.2 1.2
2019-Jan-11 21:00S 65°12' W 069°42'0 0.0 110 / 11990.8 3.7-1.8 1.2
2019-Jan-11 20:00S 65°12' W 069°42'0 0.0 120 / 10990.6 4.0-1.3 1.2
2019-Jan-11 19:00S 65°12' W 069°42'0 0.0 110 / 11990.3 2.8-1.4 1.2
2019-Jan-11 18:00S 65°12' W 069°42'0 0.0 110 / 12990.0 2.7-1.6 1.2
2019-Jan-11 17:00S 65°12' W 069°42'3 2.5 100 / 13989.6 2.8-1.6 1.2
2019-Jan-11 16:00S 65°12' W 069°36'1414.2 080 / 11989.3 3.1-1.9 1.1
2019-Jan-11 15:00S 65°24' W 069°18'10 9.6 100 / 8989.2 3.5-1.7 1.0
2019-Jan-11 14:00S 65°30' W 069°00'10 9.6 100 / 8989.1 3.4-3.1 0.7
2019-Jan-11 13:00S 65°36' W 068°42'1414.1 110 / 10988.9 4.2-4.3 0.2
2019-Jan-11 12:00S 65°48' W 068°24'5 4.9 130 / 12988.6 4.4-4.3-0.5
2019-Jan-11 11:00S 65°48' W 068°12'0 0.0 140 / 11988.4 0.9-3.9-0.6
2019-Jan-11 10:00S 65°48' W 068°12'0 0.0 140 / 9988.3 0.9-3.4-0.6
2019-Jan-11 09:00S 65°48' W 068°12'0 0.0 130 / 10988.0 0.6-3.3-0.5
2019-Jan-11 08:00S 65°48' W 068°12'8 7.8 130 / 10987.6 2.4-3.9-0.6
2019-Jan-11 07:00S 65°54' W 068°00'1414.1 140 / 9987.5 0.7-5.0-0.3
2019-Jan-11 06:00S 66°06' W 067°42'2 2.4 120 / 9987.4 -0.8-5.3-0.3
2019-Jan-11 05:00S 66°06' W 067°36'0 0.0 140 / 15986.9 -0.6-5.7-0.1
2019-Jan-11 04:00S 66°06' W 067°36'2 2.4 140 / 14986.8 -0.5-5.2-0.1
2019-Jan-11 03:00S 66°06' W 067°30'0 0.0 140 / 15986.7 -0.1-5.4-0.2
2019-Jan-11 02:00S 66°06' W 067°30'8 7.7 140 / 16986.6 -0.2-5.8-0.8
2019-Jan-11 01:00S 66°12' W 067°18'0 0.0 150 / 17986.3 0.2-5.4-1.5
2019-Jan-11 00:00S 66°12' W 067°18'0 0.0 150 / 16986.0 0.2-5.5-1.6
2019-Jan-10 23:00S 66°12' W 067°18'0 0.0 150 / 15986.0 2.0-4.9-1.6
2019-Jan-10 22:00S 66°12' W 067°18'0 0.0 150 / 14985.9 4.5-5.1-1.7
2019-Jan-10 21:00S 66°12' W 067°18'0 0.0 150 / 16985.8 3.7-4.6-1.5
2019-Jan-10 20:00S 66°12' W 067°18'6 6.0 140 / 14985.7 3.2-3.7-0.9
2019-Jan-10 19:00S 66°06' W 067°18'6 6.0 150 / 14985.5 3.0-3.4-1.2
2019-Jan-10 18:00S 66°00' W 067°18'6 6.5 160 / 11985.3 3.4-0.6-1.6
2019-Jan-10 17:00S 65°54' W 067°12'6 6.5 170 / 10985.2 2.0 1.3-1.4
2019-Jan-10 16:00S 65°48' W 067°06'7 7.4 160 / 9985.2 0.8 0.4-1.2
2019-Jan-10 15:00S 65°48' W 066°48'1212.3 140 / 9985.1 0.8 0.3-0.2
2019-Jan-10 14:00S 65°36' W 066°42'10 9.6 110 / 9985.2 1.5 1.0 0.2
2019-Jan-10 13:00S 65°30' W 066°24'10 9.6 100 / 10985.4 0.1-0.1 0.2
2019-Jan-10 12:00S 65°24' W 066°06'0 0.0 100 / 12985.3 -0.1-0.4 0.3
2019-Jan-10 11:00S 65°24' W 066°06'0 0.0 070 / 22984.8 -0.0-0.3 0.2
2019-Jan-10 10:00S 65°24' W 066°06'0 0.0 070 / 27984.4 -0.1-0.4 0.2
2019-Jan-10 09:00S 65°24' W 066°06'2 2.5 070 / 25984.1 -0.3-0.6 0.2
2019-Jan-10 08:00S 65°24' W 066°12'8 7.8 060 / 31983.1 -0.3-0.6 0.5
2019-Jan-10 07:00S 65°18' W 066°24'7 6.5 070 / 32983.5 -0.3-0.7 0.5
2019-Jan-10 06:00S 65°12' W 066°30'3 2.5 060 / 31983.2 -0.0-0.5 0.5
2019-Jan-10 05:00S 65°12' W 066°36'3 2.5 060 / 34983.3 0.3-0.3 0.2
2019-Jan-10 04:00S 65°12' W 066°42'0 0.0 050 / 34983.8 0.7-0.1 0.2
2019-Jan-10 03:00S 65°12' W 066°42'10 9.7 050 / 30983.6 0.5-0.1 0.7
2019-Jan-10 02:00S 65°06' W 067°00'10 9.7 050 / 27983.9 0.6-0.1 1.1
2019-Jan-10 01:00S 65°00' W 067°18'1414.2 050 / 25984.0 0.9 0.1 1.2
2019-Jan-10 00:00S 64°48' W 067°36'10 9.7 040 / 24984.3 1.0 0.2 1.2
2019-Jan-09 23:00S 64°42' W 067°54'10 9.8 040 / 22984.8 1.1 0.2 1.1
2019-Jan-09 22:00S 64°36' W 068°12'6 6.0 030 / 23985.6 1.5 0.3 1.0
2019-Jan-09 21:00S 64°30' W 068°12'7 6.5 030 / 24986.4 1.9 0.5 1.0
2019-Jan-09 20:00S 64°36' W 068°18'7 6.5 030 / 22987.4 1.6 0.1 1.0
2019-Jan-09 19:00S 64°30' W 068°12'6 6.0 030 / 21988.3 2.1-0.0 1.0
2019-Jan-09 18:00S 64°36' W 068°12'0 0.0 020 / 19989.2 1.8-0.7 1.0
2019-Jan-09 17:00S 64°36' W 068°12'0 0.0 020 / 18990.2 1.4-1.3 1.1
2019-Jan-09 16:00S 64°36' W 068°12'0 0.0 010 / 16991.0 1.5-1.3 1.1
2019-Jan-09 15:00S 64°36' W 068°12'0 0.0 010 / 14991.7 0.9-1.8 1.1
2019-Jan-09 14:00S 64°36' W 068°12'7 6.5 340 / 11992.3 0.4-2.0 1.2
2019-Jan-09 13:00S 64°30' W 068°06'10 9.8 320 / 10993.1 0.3-2.2 1.2
2019-Jan-09 12:00S 64°24' W 067°48'1414.3 290 / 10993.7 0.6-2.1 1.3
2019-Jan-09 11:00S 64°12' W 067°30'10 9.9 280 / 11994.4 1.2-2.4 1.2
2019-Jan-09 10:00S 64°06' W 067°12'8 8.0 270 / 12994.9 1.3-2.8 1.3
2019-Jan-09 09:00S 64°00' W 067°00'8 8.0 250 / 13995.2 1.9-2.4 1.2
2019-Jan-09 08:00S 63°54' W 066°48'0 0.0 240 / 14995.4 1.6-1.3 1.2
2019-Jan-09 07:00S 63°54' W 066°48'0 0.0 250 / 17995.4 0.8-1.1 1.2
2019-Jan-09 06:00S 63°54' W 066°48'0 0.0 230 / 17995.5 1.1-0.9 1.2
2019-Jan-09 05:00S 63°54' W 066°48'0 0.0 240 / 18995.6 0.8-0.9 1.2
2019-Jan-09 04:00S 63°54' W 066°48'0 0.0 250 / 19995.9 1.4-0.7 1.2
2019-Jan-09 03:00S 63°54' W 066°48'8 8.0 250 / 19995.8 0.7-1.3 1.2
2019-Jan-09 02:00S 64°00' W 066°36'1212.1 260 / 18995.6 1.1-1.4 1.3
2019-Jan-09 01:00S 64°06' W 066°12'1414.3 260 / 17995.6 1.2-1.4 1.3
2019-Jan-09 00:00S 64°18' W 065°54'10 9.8 250 / 18995.5 1.2-1.4 1.4
2019-Jan-08 23:00S 64°24' W 065°36'10 9.8 260 / 14995.4 1.2-0.4 1.4
2019-Jan-08 22:00S 64°30' W 065°18'0 0.0 310 / 7995.7 1.5-0.7 1.6
2019-Jan-08 21:00S 64°30' W 065°18'0 0.0 300 / 9995.9 2.8-0.1 1.5
2019-Jan-08 20:00S 64°30' W 065°18'0 0.0 300 / 9996.0 2.6-0.0 1.5
2019-Jan-08 19:00S 64°30' W 065°18'0 0.0 310 / 8996.1 2.4-0.1 1.3
2019-Jan-08 18:00S 64°30' W 065°18'8 7.9 310 / 10996.2 3.4-0.3 1.4
2019-Jan-08 17:00S 64°36' W 065°06'10 9.8 330 / 8996.4 3.6-0.9 1.5
2019-Jan-08 16:00S 64°42' W 064°48'7 6.5 290 / 7996.6 2.9-1.5 0.5
2019-Jan-08 15:00S 64°48' W 064°42'0 0.0 270 / 7996.6 2.2-1.3 0.5
2019-Jan-08 14:00S 64°48' W 064°42'0 0.0 250 / 8996.5 1.3-1.7 0.5
2019-Jan-08 13:00S 64°48' W 064°42'0 0.0 250 / 8996.2 1.1-0.9 0.5
2019-Jan-08 12:00S 64°48' W 064°42'3 2.6 240 / 7995.9 1.4-0.8 0.2
2019-Jan-08 11:00S 64°48' W 064°36'0 0.0 220 / 9995.7 1.0-1.3 0.5
2019-Jan-08 10:00S 64°48' W 064°36'0 0.0 230 / 9995.4 1.0-0.6 0.6
2019-Jan-08 09:00S 64°48' W 064°36'0 0.0 240 / 8995.1 1.6-0.4 0.8
2019-Jan-08 08:00S 64°48' W 064°36'0 0.0 240 / 7994.6 0.5-1.1 0.6
2019-Jan-08 07:00S 64°48' W 064°36'8 7.9 260 / 5994.1 1.8-0.1 0.5
2019-Jan-08 06:00S 64°54' W 064°24'5 5.1 210 / 1993.7 1.4-0.1 0.9
2019-Jan-08 05:00S 64°54' W 064°12'0 0.0 270 / 2993.5 1.3-0.1 1.1
2019-Jan-08 04:00S 64°54' W 064°12'0 0.0 290 / 3993.3 1.4-0.1 1.0
2019-Jan-08 03:00S 64°54' W 064°12'7 6.5 330 / 4993.0 1.9-0.2 1.3
2019-Jan-08 02:00S 64°48' W 064°06'0 0.0 340 / 4992.7 1.3-0.4 1.3
2019-Jan-08 01:00S 64°48' W 064°06'0 0.0 330 / 4992.3 1.4-0.7 1.3
2019-Jan-08 00:00S 64°48' W 064°06'0 0.0 310 / 4992.0 1.3-0.7 1.3
2019-Jan-07 23:00S 64°48' W 064°06'0 0.0 250 / 4991.8 1.3-1.0 1.3
2019-Jan-07 22:00S 64°48' W 064°06'8 7.9 210 / 4991.4 1.6-0.7 1.2
2019-Jan-07 21:00S 64°54' W 064°18'0 0.0 220 / 6990.8 1.0-1.0 0.2
2019-Jan-07 20:00S 64°54' W 064°18'0 0.0 240 / 8990.5 1.4-1.1 0.7
2019-Jan-07 19:00S 64°54' W 064°18'3 2.5 260 / 7990.2 2.1-0.6 0.8
2019-Jan-07 18:00S 64°54' W 064°24'5 5.1 240 / 7989.7 1.3-1.3 1.1
2019-Jan-07 17:00S 64°54' W 064°12'0 0.0 240 / 6989.2 1.3-1.9 0.9
2019-Jan-07 16:00S 64°54' W 064°12'3 2.5 250 / 5988.8 0.6-1.9 1.1
2019-Jan-07 15:00S 64°54' W 064°18'6 6.0 260 / 5988.4 0.8-1.0 1.5
2019-Jan-07 14:00S 64°48' W 064°18'0 0.0 270 / 6988.0 2.0-0.3 0.8
2019-Jan-07 13:00S 64°48' W 064°18'7 6.5 280 / 5987.5 2.1-0.4 1.3
2019-Jan-07 12:00S 64°54' W 064°12'3 2.5 270 / 3987.0 2.1-0.2 1.0
2019-Jan-07 11:00S 64°54' W 064°06'6 6.0 250 / 2986.7 1.3-0.6 1.1
2019-Jan-07 10:00S 64°48' W 064°06'3 2.6 210 / 3986.4 1.6-0.9 1.2
2019-Jan-07 09:00S 64°48' W 064°12'0 0.0 260 / 3986.0 2.0-1.3 1.6
2019-Jan-07 08:00S 64°48' W 064°12'5 5.1 290 / 7985.6 2.6-0.4 1.4
2019-Jan-07 07:00S 64°48' W 064°00'0 0.0 300 / 5985.2 2.8-0.7 1.3
2019-Jan-07 06:00S 64°48' W 064°00'0 0.0 300 / 3984.9 2.3-1.1 1.3
2019-Jan-07 05:00S 64°48' W 064°00'3 2.6 290 / 2984.6 2.0-0.8 1.2
2019-Jan-07 04:00S 64°48' W 064°06'0 0.0 260 / 1984.3 1.9-1.1 1.0
2019-Jan-07 03:00S 64°48' W 064°06'0 0.0 280 / 3984.0 2.0-1.6 1.2
2019-Jan-07 02:00S 64°48' W 064°06'6 6.0 260 / 3983.5 1.9-2.1 0.7
2019-Jan-07 01:00S 64°54' W 064°06'0 0.0 250 / 3983.1 2.1-2.4 0.8
2019-Jan-07 00:00S 64°54' W 064°06'0 0.0 230 / 3982.7 2.5-2.9 0.6
2019-Jan-06 23:00S 64°54' W 064°06'0 0.0 210 / 4982.4 2.4-2.2 0.8
2019-Jan-06 22:00S 64°54' W 064°06'0 0.0 210 / 4982.1 2.4-1.9 0.9
2019-Jan-06 21:00S 64°54' W 064°06'5 5.1 260 / 5981.8 3.2-1.3 1.0
2019-Jan-06 20:00S 64°54' W 064°18'3 2.5 260 / 3981.6 4.5-1.0 0.5
2019-Jan-06 19:00S 64°54' W 064°24'0 0.0 300 / 4981.3 4.7-1.5 0.7
2019-Jan-06 18:00S 64°54' W 064°24'0 0.0 310 / 2980.9 5.0-2.0 1.1
2019-Jan-06 17:00S 64°54' W 064°24'0 0.0 290 / 1980.6 5.9-1.7 1.1
2019-Jan-06 16:00S 64°54' W 064°24'3 2.5 040 / 2980.2 4.6-2.9 1.0
2019-Jan-06 15:00S 64°54' W 064°18'0 0.0 120 / 2980.0 4.2-1.8 1.0
2019-Jan-06 14:00S 64°54' W 064°18'3 2.5 300 / 1979.6 4.5-0.6 1.0
2019-Jan-06 13:00S 64°54' W 064°24'3 2.5 020 / 1979.3 3.2-0.4 0.9
2019-Jan-06 12:00S 64°54' W 064°18'3 2.5 060 / 3978.9 1.8-0.6 0.9
2019-Jan-06 11:00S 64°54' W 064°24'3 2.5 030 / 2978.6 2.6-0.1 0.9
2019-Jan-06 10:00S 64°54' W 064°18'3 2.5 010 / 3978.3 1.7-0.9 0.7
2019-Jan-06 09:00S 64°54' W 064°24'3 2.5 030 / 4977.9 1.2-1.0 0.8
2019-Jan-06 08:00S 64°54' W 064°18'8 7.9 020 / 4977.7 1.6-1.4 0.6
2019-Jan-06 07:00S 64°48' W 064°06'7 6.5 350 / 6977.4 0.3-4.9 1.0
2019-Jan-06 06:00S 64°42' W 064°00'6 6.0 350 / 4977.2 0.5-4.4 1.2
2019-Jan-06 05:00S 64°48' W 064°00'0 0.0 340 / 4976.8 0.7-3.3 1.1
2019-Jan-06 04:00S 64°48' W 064°00'6 6.0 340 / 3976.6 0.9-1.5 1.1
2019-Jan-06 03:00S 64°42' W 064°00'6 6.0 360 / 2976.5 1.5-1.3 1.2
2019-Jan-06 02:00S 64°48' W 064°00'   260 / 3976.1 2.3-1.7 0.9
Track history (hours):
 
Tides and Currents Weather Stations Pressure Air Temp Water Temp Dewpoint Dewpoint Depression Visibility Wind Speed Wind Dir Waves Ship Positions

Oceanographic research ship Laurence M. Gould (USA)

Detailed information on ship capabilities available from University of Delaware's Ocean Information Center.

Owner: Offshore Service Vessels LLC, Cut Off, LA. More information available from US FCC via Universal Licensing System and Coast Guard Vessel Documentation Center.

Last reported at 2019-Jan-16 02:00 UTC. Time now 2019-Jan-16 02:43 UTC.
Position S 66°30' W 072°42'.

Type: Ship. MMSI: 368138000.

Wind from 230 at 19 knots

Barometer 993.7 mb
Air temperature -0.4 ° C
Dewpoint -7.0 ° C
Water temperature 1.3 ° C

Date/timePositionNaut miles runAvg speedWind from/ knotsBaromVisibWave heightAir tempDewpointWater temp
2019-Jan-16 02:00S 66°30' W 072°42'0 0.0 230 / 19993.7 -0.4-7.0 1.3
2019-Jan-16 01:00S 66°30' W 072°42'0 0.0 240 / 17993.4 -0.5-6.7 1.2
2019-Jan-16 00:00S 66°30' W 072°42'2 2.4 230 / 17993.0 -0.0-6.7 1.3
2019-Jan-15 23:00S 66°30' W 072°36'2 0.3 220 / 20992.7 -0.0-6.5 1.3
2019-Jan-15 16:00S 66°30' W 072°42'0 0.0 190 / 12989.6 2.9-5.6 1.3
2019-Jan-15 15:00S 66°30' W 072°42'0 0.0 200 / 12989.2 3.8-5.8 1.3
2019-Jan-15 14:00S 66°30' W 072°42'0 0.0 200 / 13988.7 3.1-6.5 1.3
2019-Jan-15 13:00S 66°30' W 072°42'0 0.0 200 / 13988.2 0.8-5.4 1.3
2019-Jan-15 12:00S 66°30' W 072°42'0 0.0 190 / 14987.6 0.6-5.2 1.3
2019-Jan-15 11:00S 66°30' W 072°42'0 0.0 200 / 15987.4 0.4-5.3 1.3
2019-Jan-15 10:00S 66°30' W 072°42'0 0.0 200 / 17987.0 -0.0-5.0 1.3
2019-Jan-15 09:00S 66°30' W 072°42'8 7.7 200 / 17986.5 -0.9-4.1 1.3
2019-Jan-15 08:00S 66°36' W 072°30'9 9.3 200 / 15986.2 -1.1-3.3 0.5
2019-Jan-15 07:00S 66°42' W 072°12'1413.9 170 / 8985.8 -0.6-3.5 0.5
2019-Jan-15 06:00S 66°54' W 071°54'9 9.3 120 / 5985.8 -0.3-3.8 0.7
2019-Jan-15 05:00S 67°00' W 071°36'6 6.4 170 / 5985.7 -0.4-3.7 1.0
2019-Jan-15 04:00S 67°06' W 071°30'2 2.3 170 / 6985.7 -0.6-4.3 0.9
2019-Jan-15 03:00S 67°06' W 071°24'2 2.3 160 / 4985.7 -0.5-4.7 0.9
2019-Jan-15 02:00S 67°06' W 071°30'0 0.0 190 / 4985.7 -0.4-4.9 0.9
2019-Jan-15 01:00S 67°06' W 071°30'0 0.0 200 / 4985.6 0.4-5.0 0.9
2019-Jan-15 00:00S 67°06' W 071°30'9 9.2 230 / 5985.6 0.8-4.9 1.1
2019-Jan-14 23:00S 67°12' W 071°12'9 9.2 070 / 3985.6 0.9-3.5 0.3
2019-Jan-14 22:00S 67°18' W 070°54'8 7.6 040 / 3985.7 0.9-3.0-0.3
2019-Jan-14 21:00S 67°24' W 070°42'8 7.6 350 / 3985.8 1.8-3.0-0.9
2019-Jan-14 20:00S 67°30' W 070°30'0 0.0 340 / 3985.8 3.8-3.0-0.8
2019-Jan-14 19:00S 67°30' W 070°30'0 0.0 350 / 4985.9 3.3-3.0-0.9
2019-Jan-14 18:00S 67°30' W 070°30'0 0.0 350 / 4985.8 2.5-2.5-0.8
2019-Jan-14 17:00S 67°30' W 070°30'0 0.0 010 / 6985.9 0.3-2.7-0.9
2019-Jan-14 16:00S 67°30' W 070°30'0 0.0 340 / 7986.1 -0.2-3.4-0.9
2019-Jan-14 15:00S 67°30' W 070°30'1111.5 340 / 5986.3 0.4-3.6-0.0
2019-Jan-14 14:00S 67°30' W 070°00'1111.0 320 / 4986.5 0.5-3.0-0.0
2019-Jan-14 13:00S 67°36' W 069°36'9 9.1 290 / 3986.7 -0.0-2.4 0.1
2019-Jan-14 12:00S 67°42' W 069°18'9 9.1 300 / 7986.7 -0.0-2.2-0.4
2019-Jan-14 11:00S 67°48' W 069°00'8 7.5 320 / 8986.9 -1.3-2.5-0.5
2019-Jan-14 10:00S 67°42' W 068°48'0 0.0 310 / 7987.0 -0.7-2.1-1.2
2019-Jan-14 09:00S 67°42' W 068°48'0 0.0 320 / 7987.1 -0.7-2.1-1.2
2019-Jan-14 08:00S 67°42' W 068°48'0 0.0 320 / 7987.3 -0.8-2.5-1.2
2019-Jan-14 07:00S 67°42' W 068°48'0 0.0 310 / 7987.4 -1.1-3.4-1.2
2019-Jan-14 06:00S 67°42' W 068°48'0 0.0 310 / 7987.3 -0.8-3.0-1.3
2019-Jan-14 05:00S 67°42' W 068°48'0 0.0 320 / 10987.2 -0.7-3.1-1.3
2019-Jan-14 04:00S 67°42' W 068°48'0 0.0 340 / 11987.4 -0.6-3.2-1.3
2019-Jan-14 03:00S 67°42' W 068°48'0 0.0 330 / 9987.6 -0.9-3.4-1.1
2019-Jan-14 02:00S 67°42' W 068°48'0 0.0 330 / 7987.6 -0.5-3.4-0.9
2019-Jan-14 01:00S 67°42' W 068°48'0 0.0 330 / 5987.6 -0.1-3.4-0.8
2019-Jan-14 00:00S 67°42' W 068°48'0 0.0 300 / 4987.7 0.1-3.6-0.9
2019-Jan-13 23:00S 67°42' W 068°48'0 0.0 300 / 5987.8 1.3-3.8-0.9
2019-Jan-13 22:00S 67°42' W 068°48'0 0.0 270 / 5987.7 2.4-3.7-1.0
2019-Jan-13 21:00S 67°42' W 068°48'6 6.0 230 / 9987.5 2.0-3.2-0.8
2019-Jan-13 20:00S 67°48' W 068°48'5 4.5 210 / 8987.2 3.6-3.6-0.2
2019-Jan-13 19:00S 67°48' W 069°00'9 9.1 210 / 11987.0 1.2-3.3-0.3
2019-Jan-13 18:00S 67°42' W 069°18'9 9.1 210 / 14986.8 1.3-4.0 0.2
2019-Jan-13 17:00S 67°36' W 069°36'9 9.1 210 / 15986.7 1.5-3.8-0.0
2019-Jan-13 16:00S 67°30' W 069°54'1212.0 210 / 17986.3 3.5-3.2-0.1
2019-Jan-13 15:00S 67°18' W 069°54'8 7.6 210 / 20985.8 2.9-3.4-0.1
2019-Jan-13 14:00S 67°12' W 069°42'9 9.3 200 / 17985.2 2.2-3.7-0.7
2019-Jan-13 13:00S 67°12' W 069°18'1312.9 210 / 19984.7 6.1-3.1 0.4
2019-Jan-13 12:00S 67°00' W 069°06'1312.9 220 / 18984.4 5.5-3.0 0.7
2019-Jan-13 11:00S 66°48' W 068°54'2 2.4 210 / 14984.2 1.2-2.8-0.3
2019-Jan-13 10:00S 66°48' W 068°48'2 2.4 210 / 13984.0 -0.0-3.0-0.1
2019-Jan-13 09:00S 66°48' W 068°54'0 0.0 220 / 11983.8 -0.3-3.0-0.0
2019-Jan-13 08:00S 66°48' W 068°54'0 0.0 220 / 9983.5 -0.1-2.8-0.2
2019-Jan-13 07:00S 66°48' W 068°54'0 0.0 210 / 7983.4 -0.3-2.5-0.2
2019-Jan-13 06:00S 66°48' W 068°54'0 0.0 220 / 5983.3 -0.7-2.5-0.2
2019-Jan-13 05:00S 66°48' W 068°54'0 0.0 230 / 2983.3 -0.9-2.4-0.2
2019-Jan-13 04:00S 66°48' W 068°54'9 9.3 130 / 3983.2 -0.1-1.2-0.0
2019-Jan-13 03:00S 66°42' W 069°12'1111.2 060 / 6983.1 -0.1-1.3 0.7
2019-Jan-13 02:00S 66°36' W 069°36'8 7.7 050 / 11982.8 0.1-1.0 0.9
2019-Jan-13 01:00S 66°30' W 069°48'6 6.0 050 / 13983.0 0.4-1.0 0.8
2019-Jan-13 00:00S 66°24' W 069°48'0 0.0 050 / 14983.1 0.8-1.1 0.9
2019-Jan-12 23:00S 66°24' W 069°48'0 0.0 040 / 13983.5 0.9-1.0 0.9
2019-Jan-12 22:00S 66°24' W 069°48'6 6.0 030 / 14983.8 1.3-0.3 0.9
2019-Jan-12 21:00S 66°30' W 069°48'0 0.0 030 / 13984.2 1.7-1.2 0.9
2019-Jan-12 20:00S 66°30' W 069°48'0 0.0 020 / 13984.7 1.0-1.2 0.9
2019-Jan-12 19:00S 66°30' W 069°48'0 0.0 020 / 13985.2 1.4-1.2 1.0
2019-Jan-12 18:00S 66°30' W 069°48'0 0.0 020 / 12985.7 0.1-1.9 1.0
2019-Jan-12 17:00S 66°30' W 069°48'0 0.0 010 / 11986.2 0.9-3.2 1.1
2019-Jan-12 16:00S 66°30' W 069°48'0 0.0 010 / 7986.7 1.9-3.8 1.1
2019-Jan-12 15:00S 66°30' W 069°48'1414.0 010 / 4987.1 2.1-3.8 1.0
2019-Jan-12 14:00S 66°18' W 070°06'9 9.4 360 / 3987.6 2.6-3.8 0.9
2019-Jan-12 13:00S 66°12' W 070°24'9 9.4 340 / 4988.2 2.3-3.7 0.9
2019-Jan-12 12:00S 66°06' W 070°42'1414.1 010 / 2988.5 2.3-3.5 1.1
2019-Jan-12 11:00S 65°54' W 071°00'9 9.5 190 / 2989.0 1.7-3.4 1.3
2019-Jan-12 10:00S 65°48' W 071°18'2 2.5 230 / 4989.9 0.5-3.2 1.3
2019-Jan-12 09:00S 65°48' W 071°24'2 2.5 270 / 5990.5 0.9-3.1 1.3
2019-Jan-12 08:00S 65°48' W 071°18'0 0.0 280 / 4990.7 -0.3-3.1 1.3
2019-Jan-12 07:00S 65°48' W 071°18'0 0.0 250 / 4990.9 -0.2-2.8 1.3
2019-Jan-12 06:00S 65°48' W 071°18'0 0.0 230 / 5991.1 -0.3-3.0 1.3
2019-Jan-12 05:00S 65°48' W 071°18'2 2.5 220 / 7991.2 0.1-2.8 1.3
2019-Jan-12 04:00S 65°48' W 071°12'1414.1 220 / 7991.4 1.1-2.7 1.3
2019-Jan-12 03:00S 65°36' W 070°54'10 9.6 200 / 5991.6 1.2-2.2 1.4
2019-Jan-12 02:00S 65°30' W 070°36'10 9.6 180 / 6991.6 1.7-1.0 1.3
2019-Jan-12 01:00S 65°24' W 070°18'1211.7 150 / 3991.5 2.9-1.5 1.2
2019-Jan-12 00:00S 65°18' W 069°54'7 6.5 070 / 4991.3 3.3-2.3 1.2
2019-Jan-11 23:00S 65°12' W 069°48'3 2.5 100 / 8991.2 2.8-2.5 1.2
2019-Jan-11 22:00S 65°12' W 069°42'0 0.0 110 / 10991.0 2.9-2.2 1.2
2019-Jan-11 21:00S 65°12' W 069°42'0 0.0 110 / 11990.8 3.7-1.8 1.2
2019-Jan-11 20:00S 65°12' W 069°42'0 0.0 120 / 10990.6 4.0-1.3 1.2
2019-Jan-11 19:00S 65°12' W 069°42'0 0.0 110 / 11990.3 2.8-1.4 1.2
2019-Jan-11 18:00S 65°12' W 069°42'0 0.0 110 / 12990.0 2.7-1.6 1.2
2019-Jan-11 17:00S 65°12' W 069°42'3 2.5 100 / 13989.6 2.8-1.6 1.2
2019-Jan-11 16:00S 65°12' W 069°36'1414.2 080 / 11989.3 3.1-1.9 1.1
2019-Jan-11 15:00S 65°24' W 069°18'10 9.6 100 / 8989.2 3.5-1.7 1.0
2019-Jan-11 14:00S 65°30' W 069°00'10 9.6 100 / 8989.1 3.4-3.1 0.7
2019-Jan-11 13:00S 65°36' W 068°42'1414.1 110 / 10988.9 4.2-4.3 0.2
2019-Jan-11 12:00S 65°48' W 068°24'5 4.9 130 / 12988.6 4.4-4.3-0.5
2019-Jan-11 11:00S 65°48' W 068°12'0 0.0 140 / 11988.4 0.9-3.9-0.6
2019-Jan-11 10:00S 65°48' W 068°12'0 0.0 140 / 9988.3 0.9-3.4-0.6
2019-Jan-11 09:00S 65°48' W 068°12'0 0.0 130 / 10988.0 0.6-3.3-0.5
2019-Jan-11 08:00S 65°48' W 068°12'8 7.8 130 / 10987.6 2.4-3.9-0.6
2019-Jan-11 07:00S 65°54' W 068°00'1414.1 140 / 9987.5 0.7-5.0-0.3
2019-Jan-11 06:00S 66°06' W 067°42'2 2.4 120 / 9987.4 -0.8-5.3-0.3
2019-Jan-11 05:00S 66°06' W 067°36'0 0.0 140 / 15986.9 -0.6-5.7-0.1
2019-Jan-11 04:00S 66°06' W 067°36'2 2.4 140 / 14986.8 -0.5-5.2-0.1
2019-Jan-11 03:00S 66°06' W 067°30'0 0.0 140 / 15986.7 -0.1-5.4-0.2
2019-Jan-11 02:00S 66°06' W 067°30'8 7.7 140 / 16986.6 -0.2-5.8-0.8
2019-Jan-11 01:00S 66°12' W 067°18'0 0.0 150 / 17986.3 0.2-5.4-1.5
2019-Jan-11 00:00S 66°12' W 067°18'0 0.0 150 / 16986.0 0.2-5.5-1.6
2019-Jan-10 23:00S 66°12' W 067°18'0 0.0 150 / 15986.0 2.0-4.9-1.6
2019-Jan-10 22:00S 66°12' W 067°18'0 0.0 150 / 14985.9 4.5-5.1-1.7
2019-Jan-10 21:00S 66°12' W 067°18'0 0.0 150 / 16985.8 3.7-4.6-1.5
2019-Jan-10 20:00S 66°12' W 067°18'6 6.0 140 / 14985.7 3.2-3.7-0.9
2019-Jan-10 19:00S 66°06' W 067°18'6 6.0 150 / 14985.5 3.0-3.4-1.2
2019-Jan-10 18:00S 66°00' W 067°18'6 6.5 160 / 11985.3 3.4-0.6-1.6
2019-Jan-10 17:00S 65°54' W 067°12'6 6.5 170 / 10985.2 2.0 1.3-1.4
2019-Jan-10 16:00S 65°48' W 067°06'7 7.4 160 / 9985.2 0.8 0.4-1.2
2019-Jan-10 15:00S 65°48' W 066°48'1212.3 140 / 9985.1 0.8 0.3-0.2
2019-Jan-10 14:00S 65°36' W 066°42'10 9.6 110 / 9985.2 1.5 1.0 0.2
2019-Jan-10 13:00S 65°30' W 066°24'10 9.6 100 / 10985.4 0.1-0.1 0.2
2019-Jan-10 12:00S 65°24' W 066°06'0 0.0 100 / 12985.3 -0.1-0.4 0.3
2019-Jan-10 11:00S 65°24' W 066°06'0 0.0 070 / 22984.8 -0.0-0.3 0.2
2019-Jan-10 10:00S 65°24' W 066°06'0 0.0 070 / 27984.4 -0.1-0.4 0.2
2019-Jan-10 09:00S 65°24' W 066°06'2 2.5 070 / 25984.1 -0.3-0.6 0.2
2019-Jan-10 08:00S 65°24' W 066°12'8 7.8 060 / 31983.1 -0.3-0.6 0.5
2019-Jan-10 07:00S 65°18' W 066°24'7 6.5 070 / 32983.5 -0.3-0.7 0.5
2019-Jan-10 06:00S 65°12' W 066°30'3 2.5 060 / 31983.2 -0.0-0.5 0.5
2019-Jan-10 05:00S 65°12' W 066°36'3 2.5 060 / 34983.3 0.3-0.3 0.2
2019-Jan-10 04:00S 65°12' W 066°42'0 0.0 050 / 34983.8 0.7-0.1 0.2
2019-Jan-10 03:00S 65°12' W 066°42'10 9.7 050 / 30983.6 0.5-0.1 0.7
2019-Jan-10 02:00S 65°06' W 067°00'10 9.7 050 / 27983.9 0.6-0.1 1.1
2019-Jan-10 01:00S 65°00' W 067°18'1414.2 050 / 25984.0 0.9 0.1 1.2
2019-Jan-10 00:00S 64°48' W 067°36'10 9.7 040 / 24984.3 1.0 0.2 1.2
2019-Jan-09 23:00S 64°42' W 067°54'10 9.8 040 / 22984.8 1.1 0.2 1.1
2019-Jan-09 22:00S 64°36' W 068°12'6 6.0 030 / 23985.6 1.5 0.3 1.0
2019-Jan-09 21:00S 64°30' W 068°12'7 6.5 030 / 24986.4 1.9 0.5 1.0
2019-Jan-09 20:00S 64°36' W 068°18'7 6.5 030 / 22987.4 1.6 0.1 1.0
2019-Jan-09 19:00S 64°30' W 068°12'6 6.0 030 / 21988.3 2.1-0.0 1.0
2019-Jan-09 18:00S 64°36' W 068°12'0 0.0 020 / 19989.2 1.8-0.7 1.0
2019-Jan-09 17:00S 64°36' W 068°12'0 0.0 020 / 18990.2 1.4-1.3 1.1
2019-Jan-09 16:00S 64°36' W 068°12'0 0.0 010 / 16991.0 1.5-1.3 1.1
2019-Jan-09 15:00S 64°36' W 068°12'0 0.0 010 / 14991.7 0.9-1.8 1.1
2019-Jan-09 14:00S 64°36' W 068°12'7 6.5 340 / 11992.3 0.4-2.0 1.2
2019-Jan-09 13:00S 64°30' W 068°06'10 9.8 320 / 10993.1 0.3-2.2 1.2
2019-Jan-09 12:00S 64°24' W 067°48'1414.3 290 / 10993.7 0.6-2.1 1.3
2019-Jan-09 11:00S 64°12' W 067°30'10 9.9 280 / 11994.4 1.2-2.4 1.2
2019-Jan-09 10:00S 64°06' W 067°12'8 8.0 270 / 12994.9 1.3-2.8 1.3
2019-Jan-09 09:00S 64°00' W 067°00'8 8.0 250 / 13995.2 1.9-2.4 1.2
2019-Jan-09 08:00S 63°54' W 066°48'0 0.0 240 / 14995.4 1.6-1.3 1.2
2019-Jan-09 07:00S 63°54' W 066°48'0 0.0 250 / 17995.4 0.8-1.1 1.2
2019-Jan-09 06:00S 63°54' W 066°48'0 0.0 230 / 17995.5 1.1-0.9 1.2
2019-Jan-09 05:00S 63°54' W 066°48'0 0.0 240 / 18995.6 0.8-0.9 1.2
2019-Jan-09 04:00S 63°54' W 066°48'0 0.0 250 / 19995.9 1.4-0.7 1.2
2019-Jan-09 03:00S 63°54' W 066°48'8 8.0 250 / 19995.8 0.7-1.3 1.2
2019-Jan-09 02:00S 64°00' W 066°36'1212.1 260 / 18995.6 1.1-1.4 1.3
2019-Jan-09 01:00S 64°06' W 066°12'1414.3 260 / 17995.6 1.2-1.4 1.3
2019-Jan-09 00:00S 64°18' W 065°54'10 9.8 250 / 18995.5 1.2-1.4 1.4
2019-Jan-08 23:00S 64°24' W 065°36'10 9.8 260 / 14995.4 1.2-0.4 1.4
2019-Jan-08 22:00S 64°30' W 065°18'0 0.0 310 / 7995.7 1.5-0.7 1.6
2019-Jan-08 21:00S 64°30' W 065°18'0 0.0 300 / 9995.9 2.8-0.1 1.5
2019-Jan-08 20:00S 64°30' W 065°18'0 0.0 300 / 9996.0 2.6-0.0 1.5
2019-Jan-08 19:00S 64°30' W 065°18'0 0.0 310 / 8996.1 2.4-0.1 1.3
2019-Jan-08 18:00S 64°30' W 065°18'8 7.9 310 / 10996.2 3.4-0.3 1.4
2019-Jan-08 17:00S 64°36' W 065°06'10 9.8 330 / 8996.4 3.6-0.9 1.5
2019-Jan-08 16:00S 64°42' W 064°48'7 6.5 290 / 7996.6 2.9-1.5 0.5
2019-Jan-08 15:00S 64°48' W 064°42'0 0.0 270 / 7996.6 2.2-1.3 0.5
2019-Jan-08 14:00S 64°48' W 064°42'0 0.0 250 / 8996.5 1.3-1.7 0.5
2019-Jan-08 13:00S 64°48' W 064°42'0 0.0 250 / 8996.2 1.1-0.9 0.5
2019-Jan-08 12:00S 64°48' W 064°42'3 2.6 240 / 7995.9 1.4-0.8 0.2
2019-Jan-08 11:00S 64°48' W 064°36'0 0.0 220 / 9995.7 1.0-1.3 0.5
2019-Jan-08 10:00S 64°48' W 064°36'0 0.0 230 / 9995.4 1.0-0.6 0.6
2019-Jan-08 09:00S 64°48' W 064°36'0 0.0 240 / 8995.1 1.6-0.4 0.8
2019-Jan-08 08:00S 64°48' W 064°36'0 0.0 240 / 7994.6 0.5-1.1 0.6
2019-Jan-08 07:00S 64°48' W 064°36'8 7.9 260 / 5994.1 1.8-0.1 0.5
2019-Jan-08 06:00S 64°54' W 064°24'5 5.1 210 / 1993.7 1.4-0.1 0.9
2019-Jan-08 05:00S 64°54' W 064°12'0 0.0 270 / 2993.5 1.3-0.1 1.1
2019-Jan-08 04:00S 64°54' W 064°12'0 0.0 290 / 3993.3 1.4-0.1 1.0
2019-Jan-08 03:00S 64°54' W 064°12'7 6.5 330 / 4993.0 1.9-0.2 1.3
2019-Jan-08 02:00S 64°48' W 064°06'0 0.0 340 / 4992.7 1.3-0.4 1.3
2019-Jan-08 01:00S 64°48' W 064°06'0 0.0 330 / 4992.3 1.4-0.7 1.3
2019-Jan-08 00:00S 64°48' W 064°06'0 0.0 310 / 4992.0 1.3-0.7 1.3
2019-Jan-07 23:00S 64°48' W 064°06'0 0.0 250 / 4991.8 1.3-1.0 1.3
2019-Jan-07 22:00S 64°48' W 064°06'8 7.9 210 / 4991.4 1.6-0.7 1.2
2019-Jan-07 21:00S 64°54' W 064°18'0 0.0 220 / 6990.8 1.0-1.0 0.2
2019-Jan-07 20:00S 64°54' W 064°18'0 0.0 240 / 8990.5 1.4-1.1 0.7
2019-Jan-07 19:00S 64°54' W 064°18'3 2.5 260 / 7990.2 2.1-0.6 0.8
2019-Jan-07 18:00S 64°54' W 064°24'5 5.1 240 / 7989.7 1.3-1.3 1.1
2019-Jan-07 17:00S 64°54' W 064°12'0 0.0 240 / 6989.2 1.3-1.9 0.9
2019-Jan-07 16:00S 64°54' W 064°12'3 2.5 250 / 5988.8 0.6-1.9 1.1
2019-Jan-07 15:00S 64°54' W 064°18'6 6.0 260 / 5988.4 0.8-1.0 1.5
2019-Jan-07 14:00S 64°48' W 064°18'0 0.0 270 / 6988.0 2.0-0.3 0.8
2019-Jan-07 13:00S 64°48' W 064°18'7 6.5 280 / 5987.5 2.1-0.4 1.3
2019-Jan-07 12:00S 64°54' W 064°12'3 2.5 270 / 3987.0 2.1-0.2 1.0
2019-Jan-07 11:00S 64°54' W 064°06'6 6.0 250 / 2986.7 1.3-0.6 1.1
2019-Jan-07 10:00S 64°48' W 064°06'3 2.6 210 / 3986.4 1.6-0.9 1.2
2019-Jan-07 09:00S 64°48' W 064°12'0 0.0 260 / 3986.0 2.0-1.3 1.6
2019-Jan-07 08:00S 64°48' W 064°12'5 5.1 290 / 7985.6 2.6-0.4 1.4
2019-Jan-07 07:00S 64°48' W 064°00'0 0.0 300 / 5985.2 2.8-0.7 1.3
2019-Jan-07 06:00S 64°48' W 064°00'0 0.0 300 / 3984.9 2.3-1.1 1.3
2019-Jan-07 05:00S 64°48' W 064°00'3 2.6 290 / 2984.6 2.0-0.8 1.2
2019-Jan-07 04:00S 64°48' W 064°06'0 0.0 260 / 1984.3 1.9-1.1 1.0
2019-Jan-07 03:00S 64°48' W 064°06'0 0.0 280 / 3984.0 2.0-1.6 1.2
2019-Jan-07 02:00S 64°48' W 064°06'6 6.0 260 / 3983.5 1.9-2.1 0.7
2019-Jan-07 01:00S 64°54' W 064°06'0 0.0 250 / 3983.1 2.1-2.4 0.8
2019-Jan-07 00:00S 64°54' W 064°06'0 0.0 230 / 3982.7 2.5-2.9 0.6
2019-Jan-06 23:00S 64°54' W 064°06'0 0.0 210 / 4982.4 2.4-2.2 0.8
2019-Jan-06 22:00S 64°54' W 064°06'0 0.0 210 / 4982.1 2.4-1.9 0.9
2019-Jan-06 21:00S 64°54' W 064°06'5 5.1 260 / 5981.8 3.2-1.3 1.0
2019-Jan-06 20:00S 64°54' W 064°18'3 2.5 260 / 3981.6 4.5-1.0 0.5
2019-Jan-06 19:00S 64°54' W 064°24'0 0.0 300 / 4981.3 4.7-1.5 0.7
2019-Jan-06 18:00S 64°54' W 064°24'0 0.0 310 / 2980.9 5.0-2.0 1.1
2019-Jan-06 17:00S 64°54' W 064°24'0 0.0 290 / 1980.6 5.9-1.7 1.1
2019-Jan-06 16:00S 64°54' W 064°24'3 2.5 040 / 2980.2 4.6-2.9 1.0
2019-Jan-06 15:00S 64°54' W 064°18'0 0.0 120 / 2980.0 4.2-1.8 1.0
2019-Jan-06 14:00S 64°54' W 064°18'3 2.5 300 / 1979.6 4.5-0.6 1.0
2019-Jan-06 13:00S 64°54' W 064°24'3 2.5 020 / 1979.3 3.2-0.4 0.9
2019-Jan-06 12:00S 64°54' W 064°18'3 2.5 060 / 3978.9 1.8-0.6 0.9
2019-Jan-06 11:00S 64°54' W 064°24'3 2.5 030 / 2978.6 2.6-0.1 0.9
2019-Jan-06 10:00S 64°54' W 064°18'3 2.5 010 / 3978.3 1.7-0.9 0.7
2019-Jan-06 09:00S 64°54' W 064°24'3 2.5 030 / 4977.9 1.2-1.0 0.8
2019-Jan-06 08:00S 64°54' W 064°18'8 7.9 020 / 4977.7 1.6-1.4 0.6
2019-Jan-06 07:00S 64°48' W 064°06'7 6.5 350 / 6977.4 0.3-4.9 1.0
2019-Jan-06 06:00S 64°42' W 064°00'6 6.0 350 / 4977.2 0.5-4.4 1.2
2019-Jan-06 05:00S 64°48' W 064°00'0 0.0 340 / 4976.8 0.7-3.3 1.1
2019-Jan-06 04:00S 64°48' W 064°00'6 6.0 340 / 3976.6 0.9-1.5 1.1
2019-Jan-06 03:00S 64°42' W 064°00'6 6.0 360 / 2976.5 1.5-1.3 1.2
2019-Jan-06 02:00S 64°48' W 064°00'   260 / 3976.1 2.3-1.7 0.9

Dump ship's entire track history